Time;durP1;ratioP1;P1;durP2;ratioP2;P2;SDS_P1;SDS_P2;PMS_P1;PMS_P2;Temp;Humidity;BMP_temperature;BMP_pressure;BME280_temperature;BME280_humidity;BME280_pressure;Samples;Min_cycle;Max_cycle;Signal;HPM_P1;HPM_P2
2022/08/19 00:01:32;;;;;;;3.97;3.65;;;28.50;49.50;;;32.48;32.04;100952.91;5113572;28;20044;-8
2022/08/19 00:04:02;;;;;;;4.03;3.67;;;28.50;49.50;;;32.47;32.03;100946.63;5113539;28;20130;-8
2022/08/19 00:06:29;;;;;;;3.75;3.45;;;28.50;49.50;;;32.46;32.05;100938.69;5113460;28;20047;-8
2022/08/19 00:08:57;;;;;;;3.95;3.53;;;28.60;49.60;;;32.46;32.05;100925.16;5113941;28;20382;-8
2022/08/19 00:11:26;;;;;;;4.03;3.63;;;28.50;49.50;;;32.49;32.32;100930.22;5113373;28;20439;-8
2022/08/19 00:13:52;;;;;;;4.05;3.72;;;28.50;49.50;;;32.47;32.22;100927.69;5113471;28;20044;-8
2022/08/19 00:16:20;;;;;;;3.95;3.65;;;28.50;49.50;;;32.48;32.15;100933.97;5113579;28;20051;-8
2022/08/19 00:18:48;;;;;;;3.95;3.65;;;28.50;49.50;;;32.46;32.47;100933.25;5113305;28;20378;-8
2022/08/19 00:21:14;;;;;;;4.60;3.60;;;28.50;49.50;;;32.44;32.44;100940.72;5113123;28;20477;-8
2022/08/19 00:23:41;;;;;;;4.28;3.88;;;28.50;49.50;;;32.45;32.47;100934.31;5113268;28;20040;-8
2022/08/19 00:26:09;;;;;;;3.95;3.55;;;28.50;49.50;;;32.46;32.20;100941.38;5113302;28;20493;-8
2022/08/19 00:28:36;;;;;;;3.92;3.58;;;28.60;49.60;;;32.46;32.20;100936.84;5113376;28;20047;-8
2022/08/19 00:31:05;;;;;;;4.00;3.70;;;28.50;49.50;;;32.45;32.49;100945.97;5113061;28;20409;-8
2022/08/19 00:33:32;;;;;;;4.10;3.80;;;28.50;49.40;;;32.44;32.41;100938.84;5113220;28;20073;-8
2022/08/19 00:35:59;;;;;;;3.80;3.50;;;28.50;49.50;;;32.46;31.94;100938.69;5113170;28;20401;-8
2022/08/19 00:38:26;;;;;;;4.47;4.07;;;28.60;49.60;;;32.46;32.30;100933.25;5113113;28;20054;-8
2022/08/19 00:40:52;;;;;;;4.45;4.03;;;28.50;49.50;;;32.41;32.14;100922.09;5113092;28;20055;-8
2022/08/19 00:43:21;;;;;;;3.63;3.33;;;28.50;49.50;;;32.44;32.38;100928.03;5113388;28;20606;-8
2022/08/19 00:45:48;;;;;;;3.92;3.60;;;28.50;49.50;;;32.41;32.26;100920.25;5113100;28;20048;-8
2022/08/19 00:48:14;;;;;;;4.07;3.72;;;28.50;49.50;;;32.44;32.33;100911.78;5113322;28;20048;-8
2022/08/19 00:50:42;;;;;;;4.30;3.90;;;28.50;49.50;;;32.42;32.08;100911.13;5113085;28;20040;-8
2022/08/19 00:53:14;;;;;;;3.67;3.38;;;28.50;49.50;;;32.42;32.26;100910.28;5113098;28;20048;-8
2022/08/19 00:55:47;;;;;;;3.90;3.60;;;28.50;49.50;;;32.43;32.49;100918.22;5112814;28;20048;-8
2022/08/19 00:58:19;;;;;;;3.72;3.42;;;28.50;49.50;;;32.43;32.45;100917.41;5094788;28;20500;-8
2022/08/19 01:00:46;;;;;;;3.80;3.50;;;28.50;49.50;;;32.40;32.15;100907.75;5112673;28;20134;-8
2022/08/19 01:03:17;;;;;;;4.18;3.75;;;28.50;49.50;;;32.39;32.02;100913.31;5112810;28;20046;-8
2022/08/19 01:05:45;;;;;;;3.97;3.60;;;28.50;49.50;;;32.44;32.44;100924.47;5112866;28;20048;-8
2022/08/19 01:08:14;;;;;;;3.92;3.53;;;28.50;49.50;;;32.39;32.48;100910.63;5112734;28;20493;-8
2022/08/19 01:10:54;;;;;;;4.07;3.67;;;28.50;49.50;;;32.41;32.51;100922.97;5096820;28;20052;-8
2022/08/19 01:13:25;;;;;;;3.72;3.42;;;28.50;49.50;;;32.43;32.04;100917.41;5116400;28;20050;-8
2022/08/19 01:15:58;;;;;;;;;;;28.50;49.50;;;32.55;32.02;100913.31;5096803;28;20132;-8
2022/08/19 01:18:27;;;;;;;3.53;3.20;;;28.50;49.50;;;32.47;32.23;100913.31;5116192;28;19922;-8
2022/08/19 01:20:57;;;;;;;3.80;3.50;;;28.50;49.50;;;32.41;32.27;100905.88;5097947;28;20092;-8
2022/08/19 01:23:42;;;;;;;3.78;3.47;;;28.50;49.50;;;32.45;31.99;100909.94;5098011;28;20439;-8
2022/08/19 01:26:11;;;;;;;4.03;3.72;;;28.50;49.50;;;32.44;31.92;100916.34;5116426;28;20071;-8
2022/08/19 01:28:38;;;;;;;3.50;3.20;;;28.50;49.50;;;32.42;32.04;100905.69;5116120;28;20051;-8
2022/08/19 01:31:05;;;;;;;3.88;3.50;;;28.50;49.50;;;32.37;32.24;100901.81;5115944;28;20457;-8
2022/08/19 01:33:31;;;;;;;4.28;3.88;;;28.50;49.50;;;32.41;32.42;100914.84;5115997;28;20401;-8
2022/08/19 01:36:12;;;;;;;4.10;3.80;;;28.50;50.10;;;32.35;32.08;100907.41;5115961;28;20059;-8
2022/08/19 01:38:42;;;;;;;3.80;3.50;;;28.50;49.50;;;32.39;32.60;100908.75;5098490;28;20044;-8
2022/08/19 01:41:10;;;;;;;3.80;3.50;;;28.50;49.50;;;32.38;32.08;100890.84;5112899;28;20048;-8
2022/08/19 01:43:36;;;;;;;3.70;3.40;;;28.50;49.50;;;32.38;32.11;100893.53;5115925;28;20082;-8
2022/08/19 01:46:03;;;;;;;4.50;4.03;;;28.50;49.50;;;32.38;32.10;100890.84;5115679;28;20154;-8
2022/08/19 01:48:36;;;;;;;4.18;3.85;;;28.50;49.50;;;32.35;32.35;100883.06;5115757;28;20047;-8
2022/08/19 01:51:02;;;;;;;3.83;3.53;;;28.40;49.40;;;32.38;32.52;100879.16;5115909;28;20051;-9
2022/08/19 01:53:28;;;;;;;3.80;3.50;;;28.40;49.40;;;32.34;32.46;100867.81;5116205;28;20126;-9
2022/08/19 01:55:54;;;;;;;4.25;3.65;;;28.50;49.50;;;32.35;32.52;100869.53;5115979;28;20496;-8
2022/08/19 01:58:25;;;;;;;3.65;3.33;;;28.40;49.40;;;32.37;32.01;100886.44;5115620;28;20048;-9
2022/08/19 02:00:51;;;;;;;3.83;3.50;;;28.40;49.40;;;32.37;32.22;100885.59;5115613;28;20055;-9
2022/08/19 02:03:17;;;;;;;4.03;3.63;;;28.40;49.40;;;32.36;32.09;100884.75;5115831;28;20089;-9
2022/08/19 02:05:44;;;;;;;3.75;3.45;;;28.40;49.50;;;32.38;32.38;100882.72;5115603;28;20122;-9
2022/08/19 02:08:10;;;;;;;4.38;3.97;;;28.50;49.50;;;32.35;32.19;100883.06;5115423;28;20039;-8
2022/08/19 02:10:41;;;;;;;4.22;3.83;;;28.40;49.50;;;32.37;32.18;100882.88;5115347;28;20473;-9
2022/08/19 02:13:07;;;;;;;4.07;3.78;;;28.40;49.40;;;32.36;32.40;100870.34;5115493;28;20044;-9
2022/08/19 02:15:32;;;;;;;4.05;3.72;;;28.40;49.40;;;32.36;32.44;100867.66;5115357;28;20048;-9
2022/08/19 02:17:59;;;;;;;4.03;3.72;;;28.40;49.40;;;32.39;32.32;100864.63;5115396;28;20529;-9
2022/08/19 02:20:25;;;;;;;3.55;3.20;;;28.40;49.40;;;32.36;32.34;100852.28;5114902;28;20055;-9
2022/08/19 02:22:52;;;;;;;3.65;3.35;;;28.40;49.40;;;32.35;32.41;100841.63;5115221;28;20054;-9
2022/08/19 02:25:18;;;;;;;3.85;3.55;;;28.50;49.50;;;32.38;31.95;100852.09;5115337;28;20541;-9
2022/08/19 02:27:44;;;;;;;5.13;3.80;;;28.40;49.40;;;32.35;32.37;100839.75;5115228;28;20123;-9
2022/08/19 02:30:18;;;;;;;3.72;3.42;;;28.40;49.50;;;32.35;32.05;100847.03;5115233;28;20054;-9
2022/08/19 02:32:44;;;;;;;3.83;3.53;;;28.40;49.40;;;32.35;32.43;100855.16;5114829;28;20489;-8
2022/08/19 02:35:12;;;;;;;4.10;3.80;;;28.40;49.50;;;32.32;32.09;100862.56;5115068;28;20168;-8
2022/08/19 02:40:22;;;;;;;3.67;3.38;;;28.40;49.40;;;32.35;32.43;100868.69;5114969;28;20054;-9
2022/08/19 02:42:48;;;;;;;3.65;3.30;;;28.40;49.50;;;32.33;31.95;100860.75;5114961;28;20051;-9
2022/08/19 02:45:14;;;;;;;3.90;3.50;;;28.40;49.50;;;32.34;32.07;100867.81;5115043;28;20075;-9
2022/08/19 02:47:41;;;;;;;4.50;4.10;;;28.40;49.50;;;32.33;32.03;100863.44;5114612;28;20143;-9
2022/08/19 02:50:07;;;;;;;3.78;3.47;;;28.40;49.50;;;32.29;32.13;100854.84;5114995;28;20044;-9
2022/08/19 02:52:34;;;;;;;4.43;3.67;;;28.40;49.50;;;32.31;32.43;100852.78;5114984;28;20401;-9
2022/08/19 02:55:00;;;;;;;3.85;3.55;;;28.40;49.40;;;32.30;32.44;100855.66;5114699;28;20122;-8
2022/08/19 02:57:27;;;;;;;3.92;3.63;;;28.40;49.50;;;32.32;32.50;100865.28;5114777;28;20116;-9
2022/08/19 02:59:53;;;;;;;4.40;4.00;;;28.40;49.50;;;32.32;32.43;100859.03;5095290;28;20401;-9
2022/08/19 03:02:19;;;;;;;3.70;3.35;;;28.40;49.50;;;32.29;32.11;100860.25;5114627;28;20092;-9
2022/08/19 03:04:45;;;;;;;3.83;3.53;;;28.40;49.50;;;32.32;32.49;100865.28;5114585;28;20420;-9
2022/08/19 03:07:16;;;;;;;4.15;3.83;;;28.40;49.50;;;32.27;32.04;100867.66;5114902;28;20047;-9
2022/08/19 03:09:42;;;;;;;3.95;3.65;;;28.40;49.50;;;32.30;32.48;100870.03;5095816;28;20375;-9
2022/08/19 03:12:08;;;;;;;3.80;3.50;;;28.40;49.50;;;32.29;32.41;100870.19;5114790;28;20043;-8
2022/08/19 03:14:35;;;;;;;4.35;3.95;;;28.40;49.50;;;32.28;32.14;100863.13;5114663;28;20054;-8
2022/08/19 03:17:01;;;;;;;4.30;3.90;;;28.40;49.50;;;32.31;32.55;100868.16;5114327;28;20048;-9
2022/08/19 03:19:27;;;;;;;4.47;4.07;;;28.40;49.50;;;32.29;32.68;100864.78;5114206;28;20401;-9
2022/08/19 03:21:53;;;;;;;3.78;3.47;;;28.40;49.50;;;32.30;32.37;100866.47;5114310;28;20051;-9
2022/08/19 03:24:20;;;;;;;4.28;3.88;;;28.40;49.50;;;32.30;32.19;100871.91;5114215;28;20051;-9
2022/08/19 03:26:51;;;;;;;3.80;3.50;;;28.40;49.50;;;32.30;32.24;100870.03;5114257;28;20043;-9
2022/08/19 03:29:18;;;;;;;4.25;3.88;;;28.40;49.50;;;32.28;32.47;100866.66;5114162;28;20047;-9
2022/08/19 03:31:45;;;;;;;4.10;3.80;;;28.40;49.50;;;32.28;32.39;100866.66;5113473;28;20052;-9
2022/08/19 03:34:17;;;;;;;3.83;3.53;;;28.40;49.50;;;32.26;32.28;100865.97;5113753;28;20096;-8
2022/08/19 03:36:44;;;;;;;3.80;3.50;;;28.40;49.50;;;32.29;32.10;100873.78;5113854;28;20047;-9
2022/08/19 03:39:10;;;;;;;4.55;3.92;;;28.30;49.50;;;32.29;32.38;100862.06;5095569;28;20043;-9
2022/08/19 03:41:40;;;;;;;4.05;3.72;;;28.30;49.50;;;32.27;32.63;100858.72;5114556;28;20462;-9
2022/08/19 03:44:08;;;;;;;3.95;3.65;;;28.40;50.10;;;32.24;32.16;100861.75;5095790;28;20481;-8
2022/08/19 03:46:36;;;;;;;3.65;3.35;;;28.30;49.50;;;32.27;32.38;100875.78;5113784;28;20405;-9
2022/08/19 03:49:07;;;;;;;4.18;3.88;;;28.40;49.50;;;32.25;32.14;100879.69;5113819;28;20497;-9
2022/08/19 03:51:38;;;;;;;3.95;3.65;;;28.40;49.60;;;32.25;32.43;100879.69;5114076;28;20047;-9
2022/08/19 03:54:10;;;;;;;4.30;3.90;;;28.30;49.50;;;32.24;32.53;100880.69;5113786;28;20511;-9
2022/08/19 03:56:38;;;;;;;4.45;3.78;;;28.40;49.60;;;32.27;32.24;100883.06;5114139;28;20044;-8
2022/08/19 03:59:09;;;;;;;4.05;3.65;;;28.30;49.50;;;32.26;32.54;100893.03;5113598;28;20520;-9
2022/08/19 04:01:35;;;;;;;3.70;3.40;;;28.30;49.50;;;32.28;31.94;100892.88;5113725;28;20048;-9
2022/08/19 04:04:01;;;;;;;4.10;3.75;;;28.40;49.60;;;32.25;32.14;100899.47;5113610;28;20270;-9
2022/08/19 04:06:34;;;;;;;4.55;4.15;;;28.30;49.50;;;32.24;32.10;100897.75;5113926;28;20111;-9
2022/08/19 04:09:03;;;;;;;3.85;3.55;;;28.30;49.50;;;32.27;32.41;100908.25;5113478;28;20088;-10
2022/08/19 04:11:34;;;;;;;4.00;3.60;;;28.30;49.60;;;32.25;32.68;100907.56;5113410;28;20059;-8
2022/08/19 04:14:00;;;;;;;;;;;28.30;50.10;;;32.40;32.16;100898.78;5114277;28;20048;-9
2022/08/19 04:16:31;;;;;;;4.45;4.05;;;28.40;49.70;;;32.30;31.94;100905.19;5113347;28;20330;-9
2022/08/19 04:19:01;;;;;;;4.53;3.65;;;28.30;49.50;;;32.29;32.01;100911.66;5113461;28;20039;-9
2022/08/19 04:21:27;;;;;;;4.45;4.05;;;28.30;49.50;;;32.24;32.10;100913.16;5109830;28;20051;-8
2022/08/19 04:23:55;;;;;;;4.35;3.95;;;28.30;49.50;;;32.27;32.15;100924.47;5113368;28;20164;-9
2022/08/19 04:26:34;;;;;;;4.30;3.90;;;28.30;49.50;;;32.23;32.06;100927.72;5113284;28;20497;-8
2022/08/19 04:29:12;;;;;;;4.00;3.60;;;28.30;49.50;;;32.25;32.38;100931.09;5113286;28;20382;-9
2022/08/19 04:31:40;;;;;;;4.60;4.20;;;28.30;49.50;;;32.24;32.16;100927.50;5113026;28;20149;-9
2022/08/19 04:34:12;;;;;;;4.15;3.75;;;28.30;49.50;;;32.24;32.42;100924.81;5113215;28;20489;-9
2022/08/19 04:36:41;;;;;;;4.35;3.95;;;28.30;49.50;;;32.24;32.44;100937.50;5113708;28;20043;-9
2022/08/19 04:39:15;;;;;;;4.03;3.70;;;28.30;49.60;;;32.20;32.57;100934.28;5113298;28;20500;-9
2022/08/19 04:44:30;;;;;;;5.50;3.83;;;28.30;49.50;;;32.22;32.45;100926.00;5094465;28;20081;-9
2022/08/19 04:46:56;;;;;;;4.38;3.95;;;28.30;49.70;;;32.20;32.43;100923.47;5112961;28;20047;-9
2022/08/19 04:49:23;;;;;;;4.00;3.70;;;28.30;49.60;;;32.19;32.26;100932.59;5094641;28;20070;-9
2022/08/19 04:51:53;;;;;;;4.10;3.75;;;28.30;49.60;;;32.21;32.24;100927.88;5112893;28;20075;-9
2022/08/19 04:54:22;;;;;;;4.45;3.80;;;28.30;49.60;;;32.24;32.21;100926.69;5113015;28;20561;-9
2022/08/19 04:56:52;;;;;;;4.38;3.97;;;28.30;49.60;;;32.20;32.18;100923.47;5113204;28;20051;-9
2022/08/19 04:59:20;;;;;;;4.30;3.90;;;28.30;49.60;;;32.23;32.50;100931.25;5093281;28;20044;-9
2022/08/19 05:01:49;;;;;;;4.07;3.72;;;28.30;49.60;;;32.21;32.35;100929.72;5113095;28;20072;-9
2022/08/19 05:04:18;;;;;;;4.60;4.20;;;28.30;49.60;;;32.23;32.48;100942.06;5094348;28;20408;-8
2022/08/19 05:06:46;;;;;;;3.97;3.67;;;28.30;49.60;;;32.20;32.33;100934.28;5113342;28;20050;-9
2022/08/19 05:09:12;;;;;;;4.43;4.03;;;28.30;49.60;;;32.20;32.50;100934.28;5112661;28;20054;-9
2022/08/19 05:11:38;;;;;;;4.93;4.13;;;28.30;49.70;;;32.23;32.50;100939.38;5094207;28;20052;-9
2022/08/19 05:14:06;;;;;;;5.32;4.55;;;28.30;49.70;;;32.19;32.29;100945.28;5112547;28;20044;-9
2022/08/19 05:16:31;;;;;;;4.38;3.97;;;28.30;49.70;;;32.21;32.57;100948.66;5112557;28;20044;-9
2022/08/19 05:24:29;;;;;;;4.28;3.88;;;28.30;49.70;;;32.17;32.21;100945.44;5096951;28;20412;-9
2022/08/19 05:26:56;;;;;;;4.70;4.28;;;28.30;49.70;;;32.18;32.37;100952.56;5112413;28;20097;-9
2022/08/19 05:29:25;;;;;;;4.50;4.10;;;28.30;49.70;;;32.18;32.30;100954.41;5112625;28;20064;-9
2022/08/19 05:31:52;;;;;;;4.75;4.32;;;28.20;49.60;;;32.18;32.58;100951.69;5112782;28;20164;-9
2022/08/19 05:34:21;;;;;;;4.40;4.00;;;28.30;49.70;;;32.17;32.73;100950.84;5112262;28;20054;-9
2022/08/19 05:36:49;;;;;;;6.18;4.30;;;28.30;49.70;;;32.18;32.60;100954.41;5112572;28;20097;-9
2022/08/19 05:39:19;;;;;;;6.13;4.50;;;28.30;49.70;;;32.18;32.73;100960.66;5112215;28;20043;-9
2022/08/19 05:41:49;;;;;;;5.33;4.33;;;28.20;49.70;;;32.21;32.61;100956.78;5112239;28;20047;-9
2022/08/19 05:44:16;;;;;;;4.30;3.97;;;28.20;49.70;;;32.19;32.56;100946.13;5093496;28;20401;-8
2022/08/19 05:46:46;;;;;;;5.05;4.22;;;28.30;49.80;;;32.17;32.28;100944.59;5112546;28;20083;-9
2022/08/19 05:49:15;;;;;;;5.07;4.57;;;28.20;49.70;;;32.18;32.41;100949.84;5111929;28;20043;-9
2022/08/19 05:51:42;;;;;;;4.32;3.92;;;28.30;49.80;;;32.18;32.60;100949.84;5111978;28;20297;-9
2022/08/19 05:54:10;;;;;;;5.03;4.18;;;28.30;49.80;;;32.19;32.65;100939.88;5112226;28;20092;-9
2022/08/19 05:56:37;;;;;;;5.07;4.35;;;28.30;49.80;;;32.15;32.33;100941.22;5114371;28;20051;-9
2022/08/19 05:59:08;;;;;;;5.07;4.57;;;28.30;49.80;;;32.18;32.40;100946.28;5115301;28;20055;-9
2022/08/19 06:01:36;;;;;;;4.40;4.00;;;28.30;49.80;;;32.19;32.66;100956.09;5115629;28;20155;-9
2022/08/19 06:04:03;;;;;;;5.07;4.57;;;28.20;49.70;;;32.18;32.38;100949.84;5115822;28;20505;-9
2022/08/19 06:06:29;;;;;;;4.78;4.30;;;28.20;49.70;;;32.16;32.37;100949.19;5096142;28;20043;-8
2022/08/19 06:08:55;;;;;;;4.13;3.83;;;28.20;49.80;;;32.16;32.54;100945.59;5115233;28;20405;-9
2022/08/19 06:11:35;;;;;;;5.40;4.55;;;28.30;49.90;;;32.10;32.48;100947.97;5096930;28;20542;-9
2022/08/19 06:14:11;;;;;;;4.53;4.13;;;28.20;49.80;;;32.15;32.35;100941.22;5115702;28;20040;-9
2022/08/19 06:16:39;;;;;;;5.47;4.70;;;28.30;49.80;;;32.18;32.32;100957.97;5115401;28;20051;-9
2022/08/19 06:19:14;;;;;;;5.13;4.38;;;28.30;49.80;;;32.18;32.31;100951.69;5114968;28;20050;-9
2022/08/19 06:21:43;;;;;;;4.57;4.18;;;28.30;49.80;;;32.16;32.56;100956.44;5115755;28;20127;-9
2022/08/19 06:24:17;;;;;;;5.65;4.38;;;28.20;49.80;;;32.15;32.29;100957.47;5115306;28;20392;-9
2022/08/19 06:26:46;;;;;;;4.60;4.20;;;28.20;49.70;;;32.14;32.30;100948.47;5115333;28;20051;-9
2022/08/19 06:29:15;;;;;;;4.93;4.47;;;28.30;49.80;;;32.18;32.83;100949.84;5115152;28;20048;-9
2022/08/19 06:31:51;;;;;;;4.93;4.32;;;28.30;49.80;;;32.18;32.46;100951.69;5114893;28;20051;-9
2022/08/19 06:34:19;;;;;;;6.05;4.82;;;28.20;49.70;;;32.16;32.60;100935.66;5115405;28;20416;-9
2022/08/19 06:36:48;;;;;;;4.20;3.90;;;28.30;49.70;;;32.17;32.24;100937.31;5115279;28;20043;-9
2022/08/19 06:39:23;;;;;;;4.72;4.32;;;28.30;50.20;;;32.18;32.26;100947.16;5114849;28;20039;-9
2022/08/19 06:41:55;;;;;;;5.03;4.38;;;28.30;49.70;;;32.17;32.32;100936.50;5114917;28;20516;-9
2022/08/19 06:44:26;;;;;;;4.93;4.43;;;28.30;49.70;;;32.18;32.62;100941.72;5115036;28;20176;-9
2022/08/19 06:46:53;;;;;;;;;;;28.30;49.70;;;32.30;32.25;100936.84;5115320;28;20055;-9
2022/08/19 06:49:19;;;;;;;5.00;4.45;;;28.20;49.70;;;32.26;32.17;100940.88;5114791;28;19915;-9
2022/08/19 06:51:48;;;;;;;4.47;4.07;;;28.20;49.70;;;32.20;32.59;100933.44;5114796;28;20052;-9
2022/08/19 06:54:15;;;;;;;5.35;4.85;;;28.30;49.80;;;32.17;32.30;100936.50;5114738;28;20044;-9
2022/08/19 06:56:43;;;;;;;4.70;4.20;;;28.30;49.80;;;32.19;32.42;100942.56;5114729;28;20077;-9
2022/08/19 06:59:19;;;;;;;4.80;4.30;;;28.30;49.80;;;32.15;32.63;100941.22;5114686;28;20054;-9
2022/08/19 07:01:52;;;;;;;4.63;4.22;;;28.20;49.70;;;32.14;32.76;100943.06;5114718;28;20073;-9
2022/08/19 07:04:34;;;;;;;5.13;4.43;;;28.30;49.80;;;32.16;32.63;100946.47;5114943;28;20048;-9
2022/08/19 07:07:07;;;;;;;5.45;4.63;;;28.30;49.80;;;32.15;32.28;100941.22;5113250;28;20039;-9
2022/08/19 07:09:36;;;;;;;4.47;4.07;;;28.20;49.70;;;32.16;32.50;100945.59;5093823;28;20040;-9
2022/08/19 07:12:06;;;;;;;4.78;4.28;;;28.20;49.70;;;32.18;32.53;100947.16;5114503;28;20469;-9
2022/08/19 07:14:35;;;;;;;4.63;4.10;;;28.20;49.70;;;32.15;32.19;100942.06;5114772;28;20494;-9
2022/08/19 07:17:01;;;;;;;5.20;4.70;;;28.20;49.70;;;32.17;32.68;100950.00;5114582;28;20047;-9
2022/08/19 07:19:29;;;;;;;4.75;4.25;;;28.30;49.80;;;32.13;32.39;100944.94;5114020;28;20062;-9
2022/08/19 07:21:55;;;;;;;4.95;4.28;;;28.20;49.70;;;32.16;32.49;100945.59;5114315;28;20092;-9
2022/08/19 07:24:27;;;;;;;4.47;4.07;;;28.20;49.70;;;32.14;32.42;100943.06;5114195;28;20047;-9
2022/08/19 07:26:56;;;;;;;4.28;3.88;;;28.30;49.70;;;32.15;32.74;100949.34;5114222;28;20524;-8
2022/08/19 07:29:23;;;;;;;5.22;4.45;;;28.30;49.70;;;32.17;32.62;100948.16;5114582;28;20055;-9
2022/08/19 07:31:51;;;;;;;4.60;4.20;;;28.30;49.70;;;32.20;32.58;100949.69;5114376;28;20051;-9
2022/08/19 07:34:17;;;;;;;4.55;4.05;;;28.30;49.70;;;32.21;32.66;100960.34;5114187;28;20079;-9
2022/08/19 07:36:44;;;;;;;5.50;4.80;;;28.30;49.60;;;32.22;32.29;100977.41;5114035;28;20058;-9
2022/08/19 07:39:16;;;;;;;4.78;4.35;;;28.30;49.70;;;32.20;32.47;100980.28;5113674;28;20054;-9
2022/08/19 07:41:42;;;;;;;6.05;4.72;;;28.30;49.70;;;32.22;32.24;100977.41;5114051;28;20516;-9
2022/08/19 07:44:08;;;;;;;4.55;4.15;;;28.30;49.70;;;32.21;32.35;100971.16;5113988;28;20054;-9
2022/08/19 07:46:39;;;;;;;5.60;4.57;;;28.30;49.70;;;32.21;32.22;100981.13;5113936;28;20047;-9
2022/08/19 07:49:06;;;;;;;4.97;4.47;;;28.30;49.70;;;32.22;32.63;100978.25;5113692;28;20473;-9
2022/08/19 07:51:33;;;;;;;5.45;4.57;;;28.30;49.70;;;32.23;32.61;100985.34;5113759;28;20474;-8
2022/08/19 07:53:59;;;;;;;5.80;4.88;;;28.30;49.70;;;32.22;32.46;100986.38;5114291;28;20040;-9
2022/08/19 07:56:25;;;;;;;5.70;4.57;;;28.30;49.70;;;32.21;32.54;100989.22;5113702;28;20512;-9
2022/08/19 07:58:52;;;;;;;5.32;4.82;;;28.30;49.70;;;32.20;32.61;100982.97;5113713;28;20048;-9
2022/08/19 08:01:25;;;;;;;4.85;4.32;;;28.30;49.70;;;32.22;32.45;100993.63;5113540;28;20051;-9
2022/08/19 08:09:35;;;;;;;5.63;4.75;;;28.30;49.70;;;32.20;32.34;101004.63;5113862;28;20051;-9
2022/08/19 08:12:10;;;;;;;5.45;4.28;;;28.30;49.70;;;32.22;32.24;101020.69;5113803;28;20071;-9
2022/08/19 08:14:59;;;;;;;5.53;4.95;;;28.30;49.70;;;32.21;32.75;101011.75;5113784;28;20082;-9
2022/08/19 08:17:27;;;;;;;6.47;5.05;;;28.30;49.70;;;32.20;32.29;101012.75;5113148;28;20056;-9
2022/08/19 08:19:54;;;;;;;5.22;4.72;;;28.30;49.80;;;32.20;32.66;101007.34;5112688;28;20523;-9
2022/08/19 08:25:20;;;;;;;4.72;4.28;;;28.20;49.70;;;32.19;32.62;101021.84;5113224;28;20046;-9
2022/08/19 08:27:46;;;;;;;5.57;4.90;;;28.30;49.70;;;32.18;32.59;101014.78;5113485;28;20044;-9
2022/08/19 08:30:24;;;;;;;5.93;4.93;;;28.30;49.70;;;32.18;32.74;101016.63;5094903;28;20480;-9
2022/08/19 08:32:50;;;;;;;5.15;4.43;;;28.30;49.80;;;32.21;32.37;101024.41;5113402;28;20415;-8
2022/08/19 08:35:20;;;;;;;5.32;4.82;;;28.20;49.60;;;32.18;32.56;101017.47;5112915;28;20505;-9
2022/08/19 08:37:49;;;;;;;9.02;6.43;;;28.30;49.80;;;32.18;32.65;101019.31;5112895;28;20047;-9
2022/08/19 08:40:39;;;;;;;9.27;6.45;;;28.20;50.20;;;32.09;32.80;101019.31;5113035;28;20062;-9
2022/08/19 08:43:34;;;;;;;8.45;6.05;;;28.10;50.50;;;32.10;32.63;101025.56;5112977;28;20486;-9
2022/08/19 08:46:06;;;;;;;9.18;6.43;;;28.00;50.70;;;32.06;33.23;101019.66;5112904;28;20047;-8
2022/08/19 08:49:04;;;;;;;12.07;7.25;;;28.00;50.90;;;32.05;32.98;101023.31;5112713;28;20100;-9
2022/08/19 08:52:04;;;;;;;10.82;6.93;;;28.00;51.20;;;32.02;33.29;101020.94;5094771;28;20047;-9
2022/08/19 08:54:40;;;;;;;8.93;6.90;;;28.00;51.20;;;32.00;33.03;101020.28;5095246;28;20076;-9
2022/08/19 08:57:15;;;;;;;11.63;7.75;;;27.90;51.40;;;31.95;33.44;101014.50;5112988;28;20044;-9
2022/08/19 08:59:51;;;;;;;12.07;7.07;;;27.90;51.60;;;31.94;33.34;101021.78;5092625;28;20123;-9
2022/08/19 09:02:18;;;;;;;10.38;7.75;;;27.90;51.70;;;31.94;33.51;101027.19;5094860;28;20070;-9
2022/08/19 09:04:44;;;;;;;11.90;8.30;;;27.90;51.70;;;31.93;33.46;101021.94;5112743;28;20044;-9
2022/08/19 09:08:00;;;;;;;12.35;7.35;;;27.90;51.80;;;31.93;33.32;101025.50;5112487;28;20112;-9
2022/08/19 09:10:39;;;;;;;11.90;8.15;;;27.90;51.80;;;31.92;33.90;101025.66;5112512;28;20052;-9
2022/08/19 09:14:02;;;;;;;10.35;8.35;;;27.90;51.80;;;31.89;33.73;101024.13;5094396;28;20039;-9
2022/08/19 09:16:29;;;;;;;15.77;9.10;;;27.90;52.00;;;31.91;33.97;101030.22;5094210;28;20497;-10
2022/08/19 09:19:03;;;;;;;15.57;9.13;;;27.80;52.00;;;31.88;33.91;101021.59;5113179;28;20040;-9
2022/08/19 09:21:29;;;;;;;15.20;9.60;;;27.80;52.10;;;31.87;34.12;101023.44;5108797;28;20055;-9
2022/08/19 09:23:55;;;;;;;14.35;9.10;;;27.80;52.10;;;31.86;34.25;101029.88;5112483;28;20051;-9
2022/08/19 09:26:22;;;;;;;14.55;8.98;;;27.80;52.30;;;31.85;34.10;101038.97;5112405;28;20058;-9
2022/08/19 09:28:52;;;;;;;12.15;10.07;;;27.80;52.30;;;31.82;34.19;101022.25;5112466;28;20108;-9
2022/08/19 09:31:24;;;;;;;15.82;9.57;;;27.80;52.20;;;31.82;33.75;101024.94;5114213;28;20059;-9
2022/08/19 09:33:52;;;;;;;12.57;8.75;;;27.80;52.20;;;31.84;34.29;101026.47;5116335;28;20052;-9
2022/08/19 09:36:22;;;;;;;14.10;9.30;;;27.80;52.20;;;31.83;34.27;101030.19;5097783;28;20044;-9
2022/08/19 09:38:48;;;;;;;11.02;8.85;;;27.80;52.20;;;31.82;34.12;101020.38;5115977;28;20040;-9
2022/08/19 09:41:19;;;;;;;12.00;9.20;;;27.80;52.20;;;31.80;33.93;101022.41;5115766;28;20105;-9
2022/08/19 09:43:47;;;;;;;14.02;9.25;;;27.80;52.30;;;31.83;34.13;101032.06;5115904;28;20052;-9
2022/08/19 09:46:14;;;;;;;14.40;8.80;;;27.80;52.50;;;31.80;33.98;101024.28;5115717;28;20046;-9
2022/08/19 09:48:40;;;;;;;14.02;8.80;;;27.80;52.40;;;31.78;34.27;101019.03;5115820;28;20074;-9
2022/08/19 09:51:15;;;;;;;13.93;8.90;;;27.80;52.40;;;31.80;34.24;101029.69;5116070;28;20036;-9
2022/08/19 09:53:42;;;;;;;12.80;8.98;;;27.80;52.50;;;31.81;34.43;101021.41;5116103;28;20058;-9
2022/08/19 09:56:09;;;;;;;11.40;7.80;;;27.80;52.50;;;31.76;34.38;101019.19;5115743;28;20078;-9
2022/08/19 09:58:37;;;;;;;11.38;8.77;;;27.80;52.50;;;31.75;34.18;101019.34;5115693;28;20040;-9
2022/08/19 10:01:04;;;;;;;11.30;8.38;;;27.80;52.50;;;31.80;34.40;101032.38;5097464;28;20054;-9
2022/08/19 10:03:32;;;;;;;12.63;8.82;;;27.80;52.60;;;31.79;34.53;101028.81;5115526;28;20096;-9
2022/08/19 10:06:01;;;;;;;12.68;8.23;;;27.80;52.70;;;31.76;34.70;101030.00;5115542;28;20081;-9
2022/08/19 10:08:36;;;;;;;12.43;8.35;;;27.80;52.60;;;31.73;34.27;101027.63;5115928;28;20048;-9
2022/08/19 10:11:03;;;;;;;12.18;8.20;;;27.80;52.80;;;31.75;34.36;101022.88;5115652;28;20069;-9
2022/08/19 10:13:31;;;;;;;12.75;7.97;;;27.70;52.80;;;31.73;34.59;101024.06;5115445;28;20142;-9
2022/08/19 10:16:15;;;;;;;13.38;8.18;;;27.70;52.80;;;31.74;34.42;101032.03;5115287;28;20481;-9
2022/08/19 10:18:43;;;;;;;14.05;8.48;;;27.70;52.90;;;31.75;34.76;101028.28;5115228;28;20047;-9
2022/08/19 10:21:26;;;;;;;10.93;7.32;;;27.70;52.90;;;31.72;34.41;101025.06;5115221;28;20051;-9
2022/08/19 10:23:57;;;;;;;11.35;7.10;;;27.80;52.90;;;31.76;34.42;101034.56;5115575;28;20054;-9
2022/08/19 10:26:30;;;;;;;9.57;7.80;;;27.80;53.00;;;31.71;34.69;101026.06;5115577;28;20541;-8
2022/08/19 10:28:57;;;;;;;11.73;7.50;;;27.80;53.00;;;31.73;34.86;101024.91;5115252;28;20035;-9
2022/08/19 10:31:31;;;;;;;13.57;7.97;;;27.80;53.00;;;31.74;34.55;101039.25;5115011;28;20481;-8
2022/08/19 10:33:58;;;;;;;14.57;8.07;;;27.80;53.20;;;31.72;34.85;101028.59;5114916;28;20071;-9
2022/08/19 10:36:33;;;;;;;10.27;7.43;;;27.70;53.20;;;31.72;34.94;101035.88;5114931;28;20058;-9
2022/08/19 10:39:03;;;;;;;11.27;7.88;;;27.70;53.30;;;31.72;34.68;101030.47;5114565;28;20050;-9
2022/08/19 10:41:34;;;;;;;13.43;8.48;;;27.70;53.30;;;31.74;35.00;101031.16;5114627;28;20044;-9
2022/08/19 10:44:07;;;;;;;;;;;27.70;53.40;;;31.82;34.26;101028.47;5115285;28;20052;-8
2022/08/19 10:46:37;;;;;;;12.82;7.28;;;27.70;53.60;;;31.76;34.89;101035.41;5114805;28;20421;-9
2022/08/19 10:49:05;;;;;;;15.60;8.65;;;27.70;53.50;;;31.73;35.08;101032.19;5114783;28;20131;-9